Time;durP1;ratioP1;P1;durP2;ratioP2;P2;SDS_P1;SDS_P2;PMS_P1;PMS_P2;Temp;Humidity;BMP_temperature;BMP_pressure;BME280_temperature;BME280_humidity;BME280_pressure;Samples;Min_cycle;Max_cycle;Signal;HPM_P1;HPM_P2
2023/05/28 00:01:23;;;;;;;;;;;;;;;;;;4955953;28;19929;-82
2023/05/28 00:03:49;;;;;;;;;;;;;;;;;;4954475;28;20430;-82
2023/05/28 00:06:15;;;;;;;;;;;;;;;;;;4948301;28;19922;-82
2023/05/28 00:08:41;;;;;;;;;;;;;;;;;;4948176;28;19918;-82
2023/05/28 00:11:07;;;;;;;;;;;;;;;;;;4948591;28;19917;-82
2023/05/28 00:13:33;;;;;;;;;;;;;;;;;;4933845;28;19914;-82
2023/05/28 00:15:59;;;;;;;;;;;;;;;;;;4966113;28;19990;-82
2023/05/28 00:18:28;;;;;;;;;;;;;;;;;;4940423;28;19918;-82
2023/05/28 00:20:53;;;;;;;;;;;;;;;;;;4960545;28;19956;-82
2023/05/28 00:23:19;;;;;;;;;;;;;;;;;;4939683;28;19914;-82
2023/05/28 00:25:46;;;;;;;;;;;;;;;;;;4949370;28;20371;-82
2023/05/28 00:28:12;;;;;;;;;;;;;;;;;;4947543;28;20005;-84
2023/05/28 00:30:37;;;;;;;;;;;;;;;;;;4946331;28;19914;-83
2023/05/28 00:33:03;;;;;;;;;;;;;;;;;;4956244;28;19913;-83
2023/05/28 00:35:29;;;;;;;;;;;;;;;;;;4940268;28;19914;-83
2023/05/28 00:37:55;;;;;;;;;;;;;;;;;;4945086;28;20268;-83
2023/05/28 00:40:21;;;;;;;;;;;8.90;99.90;;;;;;4955936;28;19910;-82
2023/05/28 00:42:47;;;;;;;;;;;;;;;;;;4958104;28;20039;-83
2023/05/28 00:45:14;;;;;;;;;;;;;;;;;;4958309;28;19918;-83
2023/05/28 00:47:39;;;;;;;;;;;;;;;;;;4956662;28;20367;-82
2023/05/28 00:50:05;;;;;;;;;;;;;;;;;;4963032;28;19918;-83
2023/05/28 00:52:31;;;;;;;;;;;;;;;;;;4941105;28;20420;-82
2023/05/28 00:54:57;;;;;;;;;;;;;;;;;;4962113;28;19914;-82
2023/05/28 00:57:23;;;;;;;;;;;;;;;;;;4941101;28;19910;-83
2023/05/28 00:59:49;;;;;;;;;;;;;;;;;;4938982;28;20012;-82
2023/05/28 01:02:15;;;;;;;;;;;;;;;;;;4953708;28;19933;-82
2023/05/28 01:04:41;;;;;;;;;;;;;;;;;;4958431;28;19914;-84
2023/05/28 01:07:07;;;;;;;;;;;;;;;;;;4955739;28;19922;-82
2023/05/28 01:09:32;;;;;;;;;;;;;;;;;;4958860;28;19957;-82
2023/05/28 01:11:58;;;;;;;;;;;;;;;;;;4960863;28;19972;-83
2023/05/28 01:14:24;;;;;;;;;;;;;;;;;;4962525;28;19936;-82
2023/05/28 01:16:51;;;;;;;;;;;;;;;;;;4934265;28;19925;-82
2023/05/28 01:19:18;;;;;;;;;;;;;;;;;;4961058;28;20286;-82
2023/05/28 01:21:44;;;;;;;;;;;;;;;;;;4950339;28;19965;-81
2023/05/28 01:24:10;;;;;;;;;;;;;;;;;;4950493;28;19930;-81
2023/05/28 01:26:36;;;;;;;;;;;;;;;;;;4938415;28;19921;-82
2023/05/28 01:29:02;;;;;;;;;;;;;;;;;;4961400;28;19917;-82
2023/05/28 01:31:28;;;;;;;;;;;;;;;;;;4960768;28;19917;-83
2023/05/28 01:33:54;;;;;;;;;;;;;;;;;;4955733;28;19910;-83
2023/05/28 01:36:20;;;;;;;;;;;;;;;;;;4960132;28;19914;-82
2023/05/28 01:38:46;;;;;;;;;;;;;;;;;;4945399;28;19983;-81
2023/05/28 01:41:12;;;;;;;;;;;;;;;;;;4944313;28;20013;-81
2023/05/28 01:43:38;;;;;;;;;;;;;;;;;;4944934;28;20419;-82
2023/05/28 01:46:04;;;;;;;;;;;;;;;;;;4957847;28;19940;-83
2023/05/28 01:48:30;;;;;;;;;;;;;;;;;;4955595;28;19969;-82
2023/05/28 01:50:56;;;;;;;;;;;;;;;;;;4946889;28;19914;-84
2023/05/28 01:53:21;;;;;;;;;;;;;;;;;;4949883;28;20277;-83
2023/05/28 01:55:47;;;;;;;;;;;;;;;;;;4945960;28;19925;-82
2023/05/28 01:58:13;;;;;;;;;;;;;;;;;;4962285;28;20036;-82
2023/05/28 02:00:39;;;;;;;;;;;;;;;;;;4959074;28;20342;-82
2023/05/28 02:03:10;;;;;;;;;;;;;;;;;;4956831;28;19940;-82
2023/05/28 02:05:36;;;;;;;;;;;;;;;;;;4937791;28;19941;-82
2023/05/28 02:08:02;;;;;;;;;;;;;;;;;;4936123;28;19922;-81
2023/05/28 02:10:28;;;;;;;;;;;;;;;;;;4953690;28;19972;-82
2023/05/28 02:12:54;;;;;;;;;;;;;;;;;;4955450;28;19925;-82
2023/05/28 02:15:21;;;;;;;;;;;8.40;99.90;;;;;;4957361;28;19965;-81
2023/05/28 02:17:47;;;;;;;;;;;8.20;99.90;;;;;;4957715;28;19910;-81
2023/05/28 02:20:13;;;;;;;;;;;;;;;;;;4952341;28;20348;-82
2023/05/28 02:22:39;;;;;;;;;;;;;;;;;;4959138;28;20011;-83
2023/05/28 02:25:05;;;;;;;;;;;;;;;;;;4950365;28;21387;-82
2023/05/28 02:27:31;;;;;;;;;;;;;;;;;;4966012;28;20455;-81
2023/05/28 02:29:57;;;;;;;;;;;;;;;;;;4955589;28;20367;-81
2023/05/28 02:32:24;;;;;;;;;;;;;;;;;;4950739;28;20414;-82
2023/05/28 02:34:50;;;;;;;;;;;;;;;;;;4955098;28;19910;-81
2023/05/28 02:37:16;;;;;;;;;;;;;;;;;;4968730;28;19909;-81
2023/05/28 02:39:42;;;;;;;;;;;;;;;;;;4942838;28;19925;-81
2023/05/28 02:42:08;;;;;;;;;;;;;;;;;;4941869;28;19922;-82
2023/05/28 02:44:33;;;;;;;;;;;8.10;99.90;;;;;;4963915;28;19924;-82
2023/05/28 02:46:59;;;;;;;;;;;;;;;;;;4953592;28;19921;-82
2023/05/28 02:49:25;;;;;;;;;;;;;;;;;;4937715;28;20002;-81
2023/05/28 02:51:51;;;;;;;;;;;;;;;;;;4943771;28;19910;-82
2023/05/28 02:54:17;;;;;;;;;;;;;;;;;;4956149;28;19925;-82
2023/05/28 02:56:43;;;;;;;;;;;;;;;;;;4958302;28;19910;-81
2023/05/28 02:59:09;;;;;;;;;;;;;;;;;;4969173;28;19918;-83
2023/05/28 03:01:35;;;;;;;;;;;;;;;;;;4960940;28;19921;-82
2023/05/28 03:04:01;;;;;;;;;;;;;;;;;;4941743;28;20103;-82
2023/05/28 03:06:27;;;;;;;;;;;;;;;;;;4942335;28;19921;-82
2023/05/28 03:08:53;;;;;;;;;;;;;;;;;;4944698;28;19914;-82
2023/05/28 03:11:18;;;;;;;;;;;;;;;;;;4958733;28;19914;-82
2023/05/28 03:13:45;;;;;;;;;;;;;;;;;;4960045;28;19950;-82
2023/05/28 03:16:11;;;;;;;;;;;;;;;;;;4962666;28;19910;-81
2023/05/28 03:18:37;;;;;;;;;;;;;;;;;;4960060;28;19925;-81
2023/05/28 03:21:03;;;;;;;;;;;;;;;;;;4966327;28;19965;-82
2023/05/28 03:23:29;;;;;;;;;;;;;;;;;;4949784;28;20588;-82
2023/05/28 03:25:55;;;;;;;;;;;;;;;;;;4959018;28;19918;-82
2023/05/28 03:28:20;;;;;;;;;;;;;;;;;;4991071;23;19928;-80
2023/05/28 03:30:46;;;;;;;;;;;;;;;;;;4983313;28;20392;-80
2023/05/28 03:33:12;;;;;;;;;;;;;;;;;;4965280;28;19921;-79
2023/05/28 03:35:38;;;;;;;;;;;7.60;99.90;;;;;;4997656;28;20524;-79
2023/05/28 03:38:03;;;;;;;;;;;6.50;99.90;;;;;;4991528;28;19916;-79
2023/05/28 03:40:28;;;;;;;;;;;7.20;99.90;;;;;;4988516;28;19924;-79
2023/05/28 03:42:54;;;;;;;;;;;;;;;;;;4956727;28;19914;-79
2023/05/28 03:45:20;;;;;;;;;;;7.70;99.90;;;;;;4984899;28;19922;-78
2023/05/28 03:47:46;;;;;;;;;;;;;;;;;;4986833;28;19980;-79
2023/05/28 03:50:11;;;;;;;;;;;7.80;99.90;;;;;;4987190;28;20535;-78
2023/05/28 03:52:37;;;;;;;;;;;;;;;;;;4984214;28;19925;-79
2023/05/28 03:55:04;;;;;;;;;;;;;;;;;;4990834;28;19909;-78
2023/05/28 03:57:30;;;;;;;;;;;;;;;;;;4984706;28;20359;-79
2023/05/28 03:59:57;;;;;;;;;;;;;;;;;;4987924;28;19921;-79
2023/05/28 04:02:23;;;;;;;;;;;8.00;99.90;;;;;;4977847;28;19910;-79
2023/05/28 04:04:48;;;;;;;;;;;6.90;99.90;;;;;;4996568;28;19906;-78
2023/05/28 04:07:14;;;;;;;;;;;8.00;99.90;;;;;;4986273;28;19917;-79
2023/05/28 04:09:40;;;;;;;;;;;;;;;;;;4984409;28;20285;-78
2023/05/28 04:12:06;;;;;;;;;;;6.80;99.90;;;;;;4980585;28;19933;-79
2023/05/28 04:14:32;;;;;;;;;;;;;;;;;;4986953;28;20015;-79
2023/05/28 04:16:58;;;;;;;;;;;;;;;;;;4981916;28;19918;-78
2023/05/28 04:19:25;;;;;;;;;;;;;;;;;;4975493;28;20416;-78
2023/05/28 04:21:50;;;;;;;;;;;7.00;99.90;;;;;;4962833;28;19917;-79
2023/05/28 04:24:16;;;;;;;;;;;8.10;99.90;;;;;;4965094;28;19916;-77
2023/05/28 04:26:41;;;;;;;;;;;8.20;99.90;;;;;;4985707;28;19925;-79
2023/05/28 04:29:07;;;;;;;;;;;;;;;;;;4969528;28;19917;-76
2023/05/28 04:31:33;;;;;;;;;;;;;;;;;;4971322;28;19925;-78
2023/05/28 04:34:00;;;;;;;;;;;;;;;;;;4983542;28;20507;-78
2023/05/28 04:36:29;;;;;;;;;;;8.30;99.90;;;;;;4980290;28;20511;-77
2023/05/28 04:38:56;;;;;;;;;;;;;;;;;;4994135;28;19910;-77
2023/05/28 04:41:22;;;;;;;;;;;;;;;;;;4985427;28;19917;-77
2023/05/28 04:43:48;;;;;;;;;;;;;;;;;;4983438;28;19917;-79
2023/05/28 04:46:14;;;;;;;;;;;8.10;99.90;;;;;;4988998;28;20072;-78
2023/05/28 04:48:40;;;;;;;;;;;8.50;99.90;;;;;;4954104;28;20009;-78
2023/05/28 04:51:05;;;;;;;;;;;8.60;99.90;;;;;;4985552;28;19936;-78
2023/05/28 04:53:31;;;;;;;;;;;;;;;;;;4984813;28;19952;-76
2023/05/28 04:55:58;;;;;;;;;;;;;;;;;;4990541;28;19917;-74
2023/05/28 04:58:25;;;;;;;;;;;;;;;;;;4987673;28;20000;-76
2023/05/28 05:00:52;;;;;;;;;;;;;;;;;;4983906;28;19909;-77
2023/05/28 05:03:18;;;;;;;;;;;;;;;;;;4984608;28;19913;-77
2023/05/28 05:05:44;;;;;;;;;;;;;;;;;;4981250;28;20152;-78
2023/05/28 05:08:13;;;;;;;;;;;9.10;99.90;;;;;;4976861;28;20404;-76
2023/05/28 05:10:39;;;;;;;;;;;9.20;99.90;;;;;;4968606;28;19914;-77
2023/05/28 05:13:04;;;;;;;;;;;10.10;99.90;;;;;;4966903;28;19936;-76
2023/05/28 05:15:30;;;;;;;;;;;;;;;;;;4977029;28;19952;-76
2023/05/28 05:17:56;;;;;;;;;;;;;;;;;;4963828;28;20005;-76
2023/05/28 05:20:22;;;;;;;;;;;;;;;;;;4983976;28;19916;-78
2023/05/28 05:22:47;;;;;;;;;;;10.60;99.90;;;;;;4975648;28;19988;-77
2023/05/28 05:25:13;;;;;;;;;;;;;;;;;;4981990;28;20362;-78
2023/05/28 05:27:40;;;;;;;;;;;11.10;99.90;;;;;;4986978;28;19921;-77
2023/05/28 05:30:06;;;;;;;;;;;11.30;99.90;;;;;;4981793;28;20357;-76
2023/05/28 05:32:31;;;;;;;;;;;11.60;99.90;;;;;;4989128;28;19960;-77
2023/05/28 05:34:57;;;;;;;;;;;12.70;99.90;;;;;;4959078;28;19930;-77
2023/05/28 05:37:23;;;;;;;;;;;12.10;99.90;;;;;;4962669;28;19996;-78
2023/05/28 05:39:49;;;;;;;;;;;13.10;99.90;;;;;;4981217;28;19918;-76
2023/05/28 05:42:14;;;;;;;;;;;13.50;99.90;;;;;;4979547;28;19916;-77
2023/05/28 05:44:40;;;;;;;;;;;13.50;99.90;;;;;;4991654;28;19960;-78
2023/05/28 05:47:05;;;;;;;;;;;13.60;99.90;;;;;;4993768;28;19914;-76
2023/05/28 05:49:31;;;;;;;;;;;15.30;99.90;;;;;;4992127;28;19914;-76
2023/05/28 05:51:56;;;;;;;;;;;14.70;99.90;;;;;;4996855;28;19906;-76
2023/05/28 05:54:22;;;;;;;;;;;15.80;99.90;;;;;;4973257;28;19909;-76
2023/05/28 05:56:47;;;;;;;;;;;16.80;99.90;;;;;;4991514;28;19913;-77
2023/05/28 05:59:12;;;;;;;;;;;17.20;99.90;;;;;;4985341;28;20233;-77
2023/05/28 06:01:38;;;;;;;2.03;1.02;;;;;;;;;;4970669;28;19959;-78
2023/05/28 06:04:05;;;;;;;5.45;2.03;;;;;;;;;;4993046;28;20141;-78
2023/05/28 06:06:31;;;;;;;7.05;1.38;;;;;;;;;;4973241;28;20026;-78
2023/05/28 06:08:57;;;;;;;4.63;1.90;;;;;;;;;;4994566;28;20053;-78
2023/05/28 06:11:23;;;;;;;4.00;1.70;;;;;;;;;;4990039;28;20078;-78
2023/05/28 06:13:50;;;;;;;3.95;1.90;;;18.90;99.60;;;;;;4993219;28;20030;-78
2023/05/28 06:16:17;;;;;;;6.10;2.38;;;;;;;;;;4994090;28;20023;-75
2023/05/28 06:18:43;;;;;;;3.55;1.58;;;;;;;;;;4980563;28;20029;-76
2023/05/28 06:21:11;;;;;;;5.80;1.85;;;24.10;90.10;;;;;;4990748;28;20025;-77
2023/05/28 06:23:37;;;;;;;4.70;1.98;;;;;;;;;;4991601;28;20031;-77
2023/05/28 06:26:03;;;;;;;3.47;1.55;;;;;;;;;;4989303;28;20498;-77
2023/05/28 06:28:29;;;;;;;5.00;1.70;;;;;;;;;;4992223;28;20062;-76
2023/05/28 06:30:56;;;;;;;3.65;1.05;;;;;;;;;;4972374;28;20022;-79
2023/05/28 06:33:22;;;;;;;9.60;1.80;;;;;;;;;;4973521;28;20498;-79
2023/05/28 06:35:47;;;;;;;5.38;1.40;;;31.20;62.50;;;;;;4991900;28;20035;-80
2023/05/28 06:38:13;;;;;;;8.55;1.85;;;;;;;;;;4993555;28;20033;-81
2023/05/28 06:40:39;;;;;;;3.65;1.75;;;;;;;;;;4990086;28;20037;-79
2023/05/28 06:43:05;;;;;;;5.60;2.00;;;;;;;;;;4991162;28;20030;-79
2023/05/28 06:45:32;;;;;;;5.05;2.28;;;;;;;;;;4993353;28;20026;-78
2023/05/28 06:47:59;;;;;;;6.95;1.83;;;;;;;;;;4968456;28;20018;-78
2023/05/28 06:50:25;;;;;;;4.40;1.42;;;;;;;;;;4991594;28;20033;-78
2023/05/28 06:52:51;;;;;;;4.65;1.83;;;;;;;;;;4992655;28;20027;-77
2023/05/28 06:55:17;;;;;;;4.35;1.45;;;;;;;;;;4991836;28;20018;-80
2023/05/28 06:57:44;;;;;;;5.30;1.75;;;;;;;;;;4992595;28;20061;-81
2023/05/28 07:00:14;;;;;;;2.92;1.27;;;36.40;54.80;;;;;;4991153;28;20026;-81
2023/05/28 07:02:40;;;;;;;4.18;1.55;;;;;;;;;;4991770;28;20041;-79
2023/05/28 07:05:07;;;;;;;4.80;1.48;;;;;;;;;;4990121;28;20038;-78
2023/05/28 07:07:32;;;;;;;2.28;0.90;;;36.80;44.30;;;;;;4974585;28;20403;-81
2023/05/28 07:09:58;;;;;;;3.40;1.33;;;36.60;36.90;;;;;;4991024;28;20034;-79
2023/05/28 07:12:24;;;;;;;8.15;2.38;;;;;;;;;;4974327;28;20034;-79
2023/05/28 07:14:50;;;;;;;2.88;1.40;;;;;;;;;;4988210;28;20023;-79
2023/05/28 07:17:17;;;;;;;3.75;1.45;;;;;;;;;;4991340;28;20214;-81
2023/05/28 07:19:44;;;;;;;6.90;1.80;;;35.50;37.20;;;;;;4989868;28;20034;-81
2023/05/28 07:22:10;;;;;;;5.03;1.65;;;;;;;;;;4987814;28;20022;-82
2023/05/28 07:24:36;;;;;;;4.72;1.85;;;;;;;;;;4990915;28;20097;-80
2023/05/28 07:27:02;;;;;;;4.03;1.63;;;;;;;;;;4969329;28;20300;-78
2023/05/28 07:29:28;;;;;;;3.03;1.33;;;;;;;;;;4990243;28;20031;-80
2023/05/28 07:31:54;;;;;;;4.18;1.20;;;;;;;;;;4990610;28;20070;-80
2023/05/28 07:34:20;;;;;;;5.95;1.83;;;;;;;;;;4998588;28;20034;-79
2023/05/28 07:36:46;;;;;;;5.18;2.00;;;33.50;49.10;;;;;;4989608;28;20030;-81
2023/05/28 07:39:13;;;;;;;3.92;1.17;;;;;;;;;;4991049;28;20031;-79
2023/05/28 07:41:39;;;;;;;7.22;2.15;;;;;;;;;;4986733;28;20065;-81
2023/05/28 07:44:06;;;;;;;5.05;1.90;;;;;;;;;;4990984;28;20467;-79
2023/05/28 07:46:32;;;;;;;;;;;30.10;48.10;;;;;;4991790;28;20113;-77
2023/05/28 07:48:57;;;;;;;;;;;28.60;46.80;;;;;;4989159;28;20028;-77
2023/05/28 07:51:23;;;;;;;;;;;27.80;47.80;;;;;;4987057;28;19956;-77
2023/05/28 07:53:48;;;;;;;;;;;27.20;52.20;;;;;;4988367;28;19909;-80
2023/05/28 07:56:14;;;;;;;;;;;26.80;49.30;;;;;;4977764;28;20298;-78
2023/05/28 07:58:43;;;;;;;;;;;26.20;53.70;;;;;;4991726;28;19913;-80
2023/05/28 08:01:12;;;;;;;;;;;26.00;54.00;;;;;;4977850;28;20023;-77
2023/05/28 08:03:37;;;;;;;;;;;24.40;56.40;;;;;;4976143;28;19922;-77
2023/05/28 08:06:03;;;;;;;;;;;25.10;55.30;;;;;;4989951;28;19992;-79
2023/05/28 08:08:28;;;;;;;;;;;25.00;56.80;;;;;;4991124;28;19910;-78
2023/05/28 08:10:55;;;;;;;;;;;24.40;55.30;;;;;;4996765;28;19910;-78
2023/05/28 08:13:21;;;;;;;;;;;23.90;57.00;;;;;;4991864;28;20362;-76
2023/05/28 08:15:47;;;;;;;;;;;23.80;57.80;;;;;;4988138;28;19925;-77
2023/05/28 08:18:12;;;;;;;;;;;24.00;54.80;;;;;;4992674;28;19918;-78
2023/05/28 08:20:38;;;;;;;;;;;25.00;57.60;;;;;;4989559;28;19936;-79
2023/05/28 08:23:04;;;;;;;;;;;25.60;59.20;;;;;;4973926;28;19914;-77
2023/05/28 08:25:30;;;;;;;;;;;25.30;58.90;;;;;;4989681;28;20403;-77
2023/05/28 08:27:55;;;;;;;;;;;25.90;55.30;;;;;;4986917;28;19992;-78
2023/05/28 08:30:21;;;;;;;;;;;24.00;56.70;;;;;;4992495;28;19916;-77
2023/05/28 08:32:47;;;;;;;;;;;27.00;49.90;;;;;;4991518;28;19910;-77
2023/05/28 08:35:12;;;;;;;;;;;27.10;49.90;;;;;;4990658;28;19924;-78
2023/05/28 08:37:38;;;;;;;;;;;28.50;49.20;;;;;;4990320;28;19918;-77
2023/05/28 08:40:08;;;;;;;;;;;28.90;47.30;;;;;;4989244;28;20301;-77
2023/05/28 08:42:33;;;;;;;;;;;32.20;42.70;;;;;;4985202;28;19910;-78
2023/05/28 08:44:59;;;;;;;;;;;32.00;43.20;;;;;;4987791;28;20394;-78
2023/05/28 08:47:25;;;;;;;;;;;33.10;41.30;;;;;;4991602;28;20008;-79
2023/05/28 08:49:52;;;;;;;5.38;1.33;;;34.20;38.90;;;;;;4982737;28;19932;-78
2023/05/28 08:52:20;;;;;;;7.28;1.95;;;34.90;37.80;;;;;;4950980;28;20198;-78
2023/05/28 08:54:47;;;;;;;8.10;2.00;;;35.30;35.80;;;;;;4992789;28;20034;-78
2023/05/28 08:57:13;;;;;;;;;;;36.10;36.60;;;;;;4974785;28;20034;-80
2023/05/28 08:59:38;;;;;;;;;;;35.90;36.60;;;;;;4975368;28;19909;-79
2023/05/28 09:02:07;;;;;;;6.85;2.00;;;36.60;40.60;;;;;;4971836;28;19920;-81
2023/05/28 09:04:34;;;;;;;5.07;1.25;;;;;;;;;;4972840;28;20030;-79
2023/05/28 09:07:00;;;;;;;6.60;1.77;;;;;;;;;;4989105;28;20133;-79
2023/05/28 09:09:26;;;;;;;5.43;1.35;;;;;;;;;;4995632;28;20502;-78
2023/05/28 09:12:02;;;;;;;4.65;1.52;;;37.40;33.70;;;;;;4988922;28;20027;-80
2023/05/28 09:14:27;;;;;;;6.50;1.95;;;38.00;37.00;;;;;;4962108;28;20026;-78
2023/05/28 09:16:53;;;;;;;4.38;1.55;;;37.80;38.00;;;;;;4995453;28;20049;-81
2023/05/28 09:19:19;;;;;;;5.18;2.05;;;;;;;;;;4990101;28;20030;-77
2023/05/28 09:21:57;;;;;;;6.22;2.03;;;35.90;37.40;;;;;;4993263;28;20403;-81
2023/05/28 09:24:26;;;;;;;6.00;2.28;;;34.70;36.70;;;;;;4992735;28;20114;-78
2023/05/28 09:26:55;;;;;;;6.35;2.13;;;;;;;;;;4978103;28;20042;-79
2023/05/28 09:29:24;;;;;;;;;;;33.40;39.20;;;;;;4994374;28;20526;-78
2023/05/28 09:31:57;;;;;;;;;;;32.00;43.30;;;;;;4990831;28;19909;-76
2023/05/28 09:34:27;;;;;;;;;;;29.40;42.30;;;;;;4987144;28;19914;-79
2023/05/28 09:36:53;;;;;;;;;;;28.30;47.00;;;;;;4987116;28;19913;-79
2023/05/28 09:39:23;;;;;;;;;;;28.20;47.40;;;;;;4986820;28;20039;-79
2023/05/28 09:41:57;;;;;;;;;;;27.90;50.70;;;;;;4979598;28;19910;-81
2023/05/28 09:44:22;;;;;;;;;;;27.50;48.60;;;;;;4990298;28;19916;-79
2023/05/28 09:46:48;;;;;;;;;;;27.00;48.60;;;;;;4990671;28;19918;-80
2023/05/28 09:49:13;;;;;;;;;;;26.60;53.50;;;;;;4988925;28;20321;-79
2023/05/28 09:51:43;;;;;;;;;;;26.20;48.40;;;;;;4994792;28;20008;-79
2023/05/28 09:54:09;;;;;;;;;;;25.90;49.40;;;;;;4992347;28;19920;-82
2023/05/28 09:56:37;;;;;;;;;;;25.80;50.00;;;;;;4993835;28;19909;-81
2023/05/28 09:59:06;;;;;;;;;;;24.80;51.70;;;;;;4990784;28;19917;-79
2023/05/28 10:01:36;;;;;;;;;;;25.60;51.80;;;;;;4991795;28;20295;-78
2023/05/28 10:04:07;;;;;;;;;;;24.90;52.50;;;;;;4985994;28;19910;-79
2023/05/28 10:06:33;;;;;;;;;;;24.80;50.40;;;;;;4992855;28;19910;-79
2023/05/28 10:08:59;;;;;;;;;;;25.10;50.80;;;;;;4978639;28;20000;-77
2023/05/28 10:11:26;;;;;;;;;;;24.20;51.10;;;;;;4985076;28;19910;-79
2023/05/28 10:13:53;;;;;;;;;;;25.10;52.30;;;;;;4987753;28;19910;-79
2023/05/28 10:16:18;;;;;;;;;;;25.20;51.70;;;;;;4989958;28;19921;-80
2023/05/28 10:18:44;;;;;;;;;;;25.10;53.00;;;;;;4991544;28;19909;-78
2023/05/28 10:21:11;;;;;;;;;;;25.10;53.30;;;;;;4990842;28;19898;-78
2023/05/28 10:23:36;;;;;;;;;;;24.20;51.70;;;;;;4962426;28;20048;-81
2023/05/28 10:26:02;;;;;;;;;;;25.30;52.10;;;;;;4991438;28;20016;-81
2023/05/28 10:28:31;;;;;;;;;;;25.20;52.50;;;;;;4993655;28;19922;-79
2023/05/28 10:31:07;;;;;;;;;;;24.20;53.00;;;;;;4990199;28;19910;-79
2023/05/28 10:33:39;;;;;;;;;;;24.90;56.10;;;;;;4988716;28;19913;-79
2023/05/28 10:36:08;;;;;;;;;;;24.90;54.70;;;;;;4991284;28;20193;-79
2023/05/28 10:38:40;;;;;;;;;;;25.00;56.10;;;;;;4988252;28;19910;-78
2023/05/28 10:41:06;;;;;;;;;;;25.10;56.80;;;;;;4975777;28;19910;-77
2023/05/28 10:43:37;;;;;;;;;;;24.30;54.80;;;;;;4988041;28;19921;-80
2023/05/28 10:46:03;;;;;;;;;;;25.40;53.60;;;;;;4992720;28;19929;-79
2023/05/28 10:48:31;;;;;;;;;;;25.30;53.30;;;;;;4994178;28;19910;-78
2023/05/28 10:50:58;;;;;;;;;;;25.70;54.60;;;;;;4977616;28;19917;-77
2023/05/28 10:53:24;;;;;;;;;;;24.30;51.80;;;;;;4982670;28;20428;-78
2023/05/28 10:55:51;;;;;;;;;;;25.10;51.80;;;;;;4990389;28;19910;-79
2023/05/28 10:58:22;;;;;;;;;;;25.30;51.60;;;;;;4989928;28;19917;-79
2023/05/28 11:00:48;;;;;;;;;;;25.30;50.40;;;;;;4989738;28;19917;-78
2023/05/28 11:03:13;;;;;;;;;;;25.10;51.00;;;;;;4977977;28;19906;-76
2023/05/28 11:05:39;;;;;;;;;;;25.00;51.60;;;;;;4988213;28;19917;-78
2023/05/28 11:08:05;;;;;;;;;;;24.00;51.80;;;;;;4990460;28;19912;-78
2023/05/28 11:10:31;;;;;;;;;;;25.20;50.30;;;;;;4992873;28;19909;-77
2023/05/28 11:12:56;;;;;;;;;;;25.30;49.60;;;;;;4974710;28;20350;-79
2023/05/28 11:15:23;;;;;;;;;;;25.00;50.20;;;;;;4988825;28;19917;-78
2023/05/28 11:17:49;;;;;;;;;;;25.20;50.70;;;;;;4975772;28;19956;-77
2023/05/28 11:20:24;;;;;;;;;;;25.20;54.20;;;;;;4988163;28;19917;-76
2023/05/28 11:22:50;;;;;;;;;;;25.20;51.60;;;;;;4986467;28;19909;-78
2023/05/28 11:25:15;;;;;;;;;;;25.00;51.60;;;;;;4980346;28;19906;-80
2023/05/28 11:27:46;;;;;;;;;;;24.00;50.60;;;;;;4986677;28;19918;-76
2023/05/28 11:30:13;;;;;;;;;;;25.10;52.10;;;;;;4988751;28;19910;-78
2023/05/28 11:32:39;;;;;;;;;;;24.10;52.20;;;;;;4990894;28;19956;-80
2023/05/28 11:35:04;;;;;;;;;;;25.10;53.50;;;;;;4990389;28;19945;-80
2023/05/28 11:37:34;;;;;;;;;;;25.00;50.80;;;;;;4992465;28;19906;-80
2023/05/28 11:40:00;;;;;;;;;;;24.90;52.20;;;;;;4993403;28;19905;-76
2023/05/28 11:42:28;;;;;;;;;;;24.10;51.60;;;;;;4970219;28;20168;-77
2023/05/28 11:44:53;;;;;;;;;;;25.10;50.40;;;;;;4988047;28;19917;-80
2023/05/28 11:47:20;;;;;;;;;;;25.30;50.60;;;;;;4989959;28;19914;-79
2023/05/28 11:49:47;;;;;;;;;;;25.50;50.30;;;;;;4983991;28;19922;-78
2023/05/28 11:52:13;;;;;;;;;;;24.80;50.90;;;;;;4990968;28;19932;-79
2023/05/28 11:54:40;;;;;;;;;;;25.60;51.30;;;;;;4986042;28;19906;-78
2023/05/28 11:57:06;;;;;;;;;;;25.70;52.90;;;;;;4989708;28;20388;-78
2023/05/28 11:59:32;;;;;;;;;;;25.50;50.50;;;;;;4985388;28;19925;-78
2023/05/28 12:02:11;;;;;;;;;;;25.50;50.60;;;;;;4988881;28;19961;-79
2023/05/28 12:04:37;;;;;;;;;;;25.40;51.40;;;;;;4991446;28;19933;-77
2023/05/28 12:07:02;;;;;;;;;;;25.30;50.70;;;;;;4992386;28;19914;-78
2023/05/28 12:09:28;;;;;;;;;;;24.20;51.70;;;;;;4991572;28;19913;-80
2023/05/28 12:12:03;;;;;;;;;;;25.30;52.70;;;;;;4982721;28;19913;-78
2023/05/28 12:14:29;;;;;;;;;;;24.40;51.40;;;;;;4989439;28;20334;-80
2023/05/28 12:16:55;;;;;;;;;;;24.60;51.40;;;;;;4964455;28;19910;-78
2023/05/28 12:19:20;;;;;;;;;;;25.60;52.50;;;;;;4991872;28;19973;-79
2023/05/28 12:21:45;;;;;;;;;;;25.20;51.50;;;;;;4971435;28;19912;-79
2023/05/28 12:24:14;;;;;;;;;;;25.40;52.20;;;;;;4988626;28;19912;-80
2023/05/28 12:26:41;;;;;;;;;;;25.60;53.00;;;;;;4986684;28;20283;-78
2023/05/28 12:29:06;;;;;;;;;;;25.50;55.60;;;;;;4986537;28;20032;-79
2023/05/28 12:31:32;;;;;;;;;;;25.70;55.20;;;;;;4992177;28;19996;-79
2023/05/28 12:33:57;;;;;;;;;;;25.40;52.40;;;;;;4989594;28;20012;-79
2023/05/28 12:36:23;;;;;;;;;;;25.60;51.00;;;;;;4990467;28;19932;-81
2023/05/28 12:38:48;;;;;;;;;;;25.40;50.00;;;;;;4990131;28;20057;-78
2023/05/28 12:41:13;;;;;;;;;;;24.30;50.20;;;;;;4990111;28;20565;-78
2023/05/28 12:43:39;;;;;;;;;;;25.20;49.80;;;;;;4978919;28;20377;-78
2023/05/28 12:46:04;;;;;;;;;;;24.40;50.90;;;;;;4993624;28;19914;-78
2023/05/28 12:48:30;;;;;;;;;;;25.30;52.50;;;;;;4992492;28;19916;-77
2023/05/28 12:50:55;;;;;;;;;;;24.50;52.30;;;;;;4987916;28;20366;-79
2023/05/28 12:53:21;;;;;;;;;;;25.60;51.70;;;;;;4994093;28;20274;-78
2023/05/28 12:55:48;;;;;;;;;;;25.60;51.40;;;;;;4992948;28;19949;-78
2023/05/28 12:58:13;;;;;;;;;;;25.30;51.70;;;;;;4977487;28;20094;-76
2023/05/28 13:00:38;;;;;;;;;;;25.80;55.10;;;;;;4994594;28;19957;-77
2023/05/28 13:03:04;;;;;;;;;;;25.40;52.90;;;;;;4992258;28;19909;-79
2023/05/28 13:05:33;;;;;;;;;;;24.30;53.30;;;;;;4994614;28;20004;-78
2023/05/28 13:08:00;;;;;;;;;;;25.30;53.70;;;;;;4994001;28;19924;-77
2023/05/28 13:10:25;;;;;;;;;;;25.20;53.40;;;;;;4983304;28;20374;-77
2023/05/28 13:12:51;;;;;;;;;;;25.40;53.80;;;;;;4993039;28;20004;-78
2023/05/28 13:15:17;;;;;;;;;;;25.00;54.20;;;;;;5002834;28;19913;-79
2023/05/28 13:17:43;;;;;;;;;;;25.30;53.80;;;;;;4993558;28;19909;-78
2023/05/28 13:20:10;;;;;;;;;;;24.60;52.10;;;;;;4989410;28;19921;-75
2023/05/28 13:22:38;;;;;;;;;;;25.00;53.30;;;;;;4987931;28;20279;-77
2023/05/28 13:25:04;;;;;;;;;;;25.60;52.20;;;;;;4978521;28;19917;-79
2023/05/28 13:27:30;;;;;;;;;;;25.40;53.30;;;;;;4996025;28;19968;-79
2023/05/28 13:29:56;;;;;;;;;;;25.50;53.00;;;;;;4994260;28;20263;-78
2023/05/28 13:32:21;;;;;;;;;;;25.30;51.80;;;;;;4979062;28;19917;-78
2023/05/28 13:34:46;;;;;;;;;;;25.60;53.30;;;;;;4992732;28;19964;-78
2023/05/28 13:37:12;;;;;;;;;;;25.10;52.70;;;;;;4995801;28;19913;-76
2023/05/28 13:39:37;;;;;;;;;;;25.50;52.60;;;;;;4994870;28;20290;-77
2023/05/28 13:42:03;;;;;;;;;;;25.00;51.70;;;;;;4988619;28;19926;-79
2023/05/28 13:44:29;;;;;;;;;;;25.40;50.90;;;;;;4990642;28;19917;-80
2023/05/28 13:46:55;;;;;;;;;;;25.60;49.90;;;;;;4982733;28;20313;-78
2023/05/28 13:49:20;;;;;;;;;;;24.70;50.70;;;;;;4993570;28;20385;-79
2023/05/28 13:51:46;;;;;;;;;;;25.40;50.70;;;;;;4995023;28;19910;-77
2023/05/28 13:54:12;;;;;;;;;;;24.80;49.40;;;;;;4992166;28;19913;-78
2023/05/28 13:56:37;;;;;;;;;;;25.40;51.00;;;;;;4992460;28;19951;-79
2023/05/28 13:59:03;;;;;;;;;;;25.30;51.70;;;;;;4992290;28;19940;-79
2023/05/28 14:01:29;;;;;;;;;;;25.30;51.40;;;;;;4994675;28;19944;-78
2023/05/28 14:03:54;;;;;;;;;;;25.40;51.90;;;;;;4989658;28;19910;-77
2023/05/28 14:06:20;;;;;;;;;;;25.20;51.70;;;;;;4989195;28;19914;-79
2023/05/28 14:08:45;;;;;;;;;;;24.40;52.00;;;;;;4991748;28;20290;-76
2023/05/28 14:11:11;;;;;;;;;;;24.80;52.30;;;;;;4983928;28;19909;-80
2023/05/28 14:13:36;;;;;;;;;;;25.20;50.80;;;;;;4989204;28;20357;-78
2023/05/28 14:16:02;;;;;;;;;;;25.30;51.80;;;;;;4985947;28;19913;-78
2023/05/28 14:18:28;;;;;;;;;;;24.60;51.90;;;;;;4987964;28;20060;-78
2023/05/28 14:20:55;;;;;;;;;;;24.60;51.00;;;;;;4989843;28;20070;-78
2023/05/28 14:23:20;;;;;;;;;;;25.30;51.60;;;;;;4974741;28;19917;-80
2023/05/28 14:25:46;;;;;;;;;;;25.30;51.20;;;;;;4992246;28;19910;-79
2023/05/28 14:28:11;;;;;;;;;;;24.20;51.70;;;;;;4991516;28;19944;-76
2023/05/28 14:30:37;;;;;;;;;;;24.50;51.90;;;;;;4994507;28;19921;-76
2023/05/28 14:33:02;;;;;;;;;;;25.10;52.80;;;;;;4992130;28;20000;-79
2023/05/28 14:35:28;;;;;;;;;;;24.70;52.50;;;;;;4993862;28;20004;-78
2023/05/28 14:37:53;;;;;;;;;;;25.20;52.70;;;;;;4992850;28;19905;-76
2023/05/28 14:40:19;;;;;;;;;;;24.50;51.70;;;;;;4993661;28;19910;-78
2023/05/28 14:42:45;;;;;;;;;;;25.20;50.40;;;;;;4987644;28;19912;-78
2023/05/28 14:45:11;;;;;;;;;;;24.50;49.10;;;;;;4985877;28;19910;-76
2023/05/28 14:47:36;;;;;;;;;;;25.30;49.70;;;;;;4992013;28;19932;-77
2023/05/28 14:50:02;;;;;;;;;;;25.10;50.00;;;;;;4997651;28;19945;-77